• Join FlightAware (Why Join?)
  • Login
  • US Flag 
07:39PM EDT


 

Airport Tracker/Info


-or-


 

Live Flight TrackerFlight Track Log ✈ PDT4373 ✈ 16-Oct-2013 ✈ KBGM - KPHL

Flight Track Log - Related Links

Times and Time Zones

All times are in EDT time to prevent confusion due to time zone crossing. See the PDT4373 flight status page for this flight to view local times or setup timezone preferences in your user account.

Time Position Orientation Groundspeed Altitude Reporting Facility
EDT Latitude Longitude Course Direction KTS MPH feet Rate Location/Type
12:17PM 42.0215 -75.9184 180° South  Level Estimated
12:18PM 41.9574 -75.9220 182° South  Level FlightAware Approximate
12:19PM 41.8933 -75.9255 182° South  Level FlightAware Approximate
12:20PM 41.8312 -75.9038 154° Southeast  Level Estimated
12:21PM 41.7692 -75.8822 160° South  Level Estimated
12:22PM 41.7071 -75.8606 159° South  Level Estimated
12:23PM 41.6445 -75.8422 168° South  Level FlightAware Approximate
12:24PM 41.5824 -75.8206 153° Southeast  Level Estimated
12:25PM 41.5203 -75.7990 161° South  Level Estimated
12:26PM 41.4597 -75.7712 161° South  Level FlightAware Approximate
12:27PM 41.3990 -75.7435 161° South  Level FlightAware Approximate
12:28PM 41.3368 -75.7226 162° South  Level Estimated
12:29PM 41.2763 -75.6944 161° South  Level FlightAware Approximate
12:30PM 41.2157 -75.6663 161° South  Level FlightAware Approximate
12:31PM 41.1552 -75.6383 161° South  Level FlightAware Approximate
12:32PM 41.0928 -75.6186 159° South  Level Estimated
12:33PM 41.0304 -75.5989 163° South  Level Estimated
12:34PM 40.9700 -75.5702 160° South  Level FlightAware Approximate
12:35PM 40.9097 -75.5415 160° South  Level FlightAware Approximate
12:36PM 40.8493 -75.5128 160° South  Level FlightAware Approximate
12:37PM 40.7866 -75.4951 190° South  Level Estimated
12:38PM 40.7225 -75.4962 181° South  Level FlightAware Approximate
12:39PM 40.6583 -75.4973 181° South  Level FlightAware Approximate
12:40PM 40.5961 -75.4768 187° South  Level Estimated
12:41PM 40.5327 -75.4897 189° South  Level FlightAware Approximate
12:42PM 40.4711 -75.4663 190° South  Level Estimated
12:43PM 40.4095 -75.4896 196° South  Level FlightAware Approximate
12:44PM 40.3491 -75.4615 180° South  Level Estimated
12:44PM 40.6333 -75.4833 123° Southeast 213 245 6,000  Level Philadelphia TRACON
12:45PM 40.2886 -75.4333 143° Southeast  Level Estimated
12:45PM 40.5833 -75.4833 180° South 212 244 6,000  Level Philadelphia TRACON
12:46PM 40.2282 -75.4052 143° Southeast  Level Estimated
12:46PM 40.5333 -75.5000 194° South 214 246 5,500  Level Philadelphia TRACON
12:47PM 40.1678 -75.3772 143° Southeast  Level Estimated
12:47PM 40.4667 -75.5167 191° South 238 274 5,000  Level Philadelphia TRACON
12:48PM 40.1073 -75.3492 143° Southeast  Level Estimated
12:48PM 40.4167 -75.5333 194° South 224 258 5,000  Level Philadelphia TRACON
12:49PM 40.0512 -75.3232 123° Southeast  Level Estimated
12:49PM 40.3500 -75.5333 180° South 223 257 4,800  Level Philadelphia TRACON
12:50PM 40.2833 -75.5500 191° South 243 280 4,000 -420 Descending Philadelphia TRACON
12:51PM 40.2167 -75.5500 180° South 178 205 4,000  Level Philadelphia TRACON
12:52PM 40.1833 -75.5000 131° Southeast 187 215 4,000  Level Philadelphia TRACON
12:53PM 40.1833 -75.4333 90° East 198 228 4,000  Level Philadelphia TRACON
12:54PM 40.2000 -75.3667 72° East 196 226 4,000  Level Philadelphia TRACON
12:55PM 40.1833 -75.3167 114° Southeast 180 207 4,000 -120 Level Philadelphia TRACON
12:56PM 40.1333 -75.3333 194° South 176 203 3,800 -540 Descending Philadelphia TRACON
12:57PM 40.0833 -75.3333 180° South 187 215 3,000 -420 Descending Philadelphia TRACON
12:58PM 40.0333 -75.3167 166° South 173 199 3,000 -420 Level Philadelphia TRACON
12:59PM 40.0000 -75.3000 159° South 170 196 2,200 -840 Descending Philadelphia TRACON
01:00PM 39.9500 -75.2667 153° Southeast 157 181 1,400 -780 Descending Philadelphia TRACON
01:01PM 39.9167 -75.2500 159° South 120 138 700 -600 Descending Philadelphia TRACON
01:02PM 39.9000 -75.2333 143° Southeast 95 109 200 -540 Descending Philadelphia TRACON